createdAt,value
2022-08-05T00:00:25.997Z,53.35
2022-08-05T00:06:02.817Z,53.55
2022-08-05T00:10:26.943Z,53.85
2022-08-05T00:15:55.475Z,54.05
2022-08-05T00:20:28.750Z,54.07
2022-08-05T00:25:23.630Z,54.86
2022-08-05T00:30:29.300Z,54.96
2022-08-05T00:35:24.524Z,54.86
2022-08-05T00:40:28.082Z,54.89
2022-08-05T00:45:28.030Z,55.58
2022-08-05T00:50:25.240Z,55.68
2022-08-05T00:55:23.330Z,56.01
2022-08-05T01:00:25.931Z,56.51
2022-08-05T01:05:23.171Z,57.03
2022-08-05T01:10:25.748Z,56.93
2022-08-05T01:15:35.792Z,57.45
2022-08-05T01:20:23.957Z,57.75
2022-08-05T01:25:22.964Z,57.78
2022-08-05T01:30:33.626Z,57.48
2022-08-05T01:35:51.259Z,57.38
2022-08-05T01:40:27.925Z,57.28
2022-08-05T01:45:23.663Z,57.31
2022-08-05T01:50:28.668Z,57.41
2022-08-05T01:55:23.515Z,57.43
2022-08-05T02:00:30.603Z,57.64
2022-08-05T02:05:23.680Z,57.73
2022-08-05T02:10:28.143Z,57.76
2022-08-05T02:15:23.351Z,58.45
2022-08-05T02:20:22.331Z,58.86
2022-08-05T02:25:22.177Z,58.95
2022-08-05T02:30:22.088Z,59.15
2022-08-05T02:35:27.626Z,59.35
2022-08-05T02:40:23.053Z,59.95
2022-08-05T02:45:23.941Z,60.14
2022-08-05T02:50:21.859Z,60.47
2022-08-05T02:55:52.065Z,60.97
2022-08-05T03:00:24.791Z,61.20
2022-08-05T03:06:54.484Z,61.50
2022-08-05T03:10:25.057Z,61.69
2022-08-05T03:15:21.598Z,61.80
2022-08-05T03:20:21.540Z,61.69
2022-08-05T03:25:32.906Z,61.90
2022-08-05T03:30:22.438Z,62.52
2022-08-05T03:35:22.290Z,62.92
2022-08-05T03:40:31.391Z,62.92
2022-08-05T03:45:23.246Z,63.45
2022-08-05T03:50:21.088Z,63.75
2022-08-05T03:56:05.120Z,63.98
2022-08-05T04:00:22.071Z,64.37
2022-08-05T04:05:21.021Z,64.37
2022-08-05T04:10:20.920Z,64.67
2022-08-05T04:15:20.785Z,65.17
2022-08-05T04:20:22.116Z,65.67
2022-08-05T04:25:24.201Z,65.87
2022-08-05T04:30:21.577Z,65.91
2022-08-05T04:35:20.513Z,65.97
2022-08-05T04:40:20.453Z,65.67
2022-08-05T04:45:30.998Z,65.57
2022-08-05T04:50:34.538Z,65.44
2022-08-05T04:56:00.106Z,65.64
2022-08-05T05:00:23.460Z,65.54
2022-08-05T05:05:28.618Z,65.11
2022-08-05T05:10:21.145Z,64.88
2022-08-05T05:15:59.418Z,64.69
2022-08-05T05:20:20.955Z,64.18
2022-08-05T05:25:19.904Z,63.95
2022-08-05T05:30:31.463Z,64.75
2022-08-05T05:35:20.826Z,64.12
2022-08-05T05:40:19.848Z,63.53
2022-08-05T05:45:19.673Z,63.40
2022-08-05T05:50:19.896Z,62.77
2022-08-05T05:55:19.599Z,62.34
2022-08-05T06:00:19.473Z,62.45
2022-08-05T06:05:20.441Z,62.02
2022-08-05T06:10:19.322Z,61.69
2022-08-05T06:15:24.138Z,61.79
2022-08-05T06:20:21.653Z,61.26
2022-08-05T06:25:59.761Z,60.86
2022-08-05T06:30:21.202Z,61.13
2022-08-05T06:36:02.789Z,60.61
2022-08-05T06:40:21.358Z,60.68
2022-08-05T06:45:20.793Z,60.16
2022-08-05T06:50:26.105Z,59.80
2022-08-05T06:55:18.762Z,59.97
2022-08-05T07:00:24.473Z,58.73
2022-08-05T07:05:22.322Z,56.90
2022-08-05T07:10:19.603Z,55.98
2022-08-05T07:15:34.413Z,55.93
2022-08-05T07:20:37.047Z,55.21
2022-08-05T07:25:53.887Z,54.37
2022-08-05T07:30:22.885Z,53.14
2022-08-05T07:36:03.256Z,52.50
2022-08-05T07:40:31.914Z,52.30
2022-08-05T07:45:19.163Z,52.76
2022-08-05T07:50:21.705Z,52.33
2022-08-05T07:55:44.465Z,51.32
2022-08-05T08:00:18.989Z,50.59
2022-08-05T08:05:18.007Z,49.68
2022-08-05T08:10:20.579Z,49.07
2022-08-05T08:15:17.808Z,49.58
2022-08-05T08:20:43.690Z,49.99
2022-08-05T08:25:26.990Z,50.12
2022-08-05T08:30:32.446Z,50.68
2022-08-05T08:35:18.551Z,50.51
2022-08-05T08:40:17.500Z,48.32
2022-08-05T08:45:26.213Z,45.92
2022-08-05T08:50:31.564Z,45.22
2022-08-05T08:55:19.551Z,44.81
2022-08-05T09:00:19.274Z,43.89
2022-08-05T09:05:18.430Z,43.58
2022-08-05T09:10:18.159Z,42.19
2022-08-05T09:15:17.173Z,41.38
2022-08-05T09:20:36.534Z,40.60
2022-08-05T09:25:24.340Z,40.58
2022-08-05T09:30:17.923Z,40.66
2022-08-05T09:35:20.157Z,40.05
2022-08-05T09:40:17.848Z,39.34
2022-08-05T09:46:02.658Z,38.33
2022-08-05T09:50:18.058Z,38.71
2022-08-05T09:55:57.696Z,38.41
2022-08-05T10:00:17.597Z,37.92
2022-08-05T10:05:16.506Z,37.73
2022-08-05T10:10:17.924Z,37.92
2022-08-05T10:15:20.242Z,37.82
2022-08-05T10:20:16.364Z,36.84
2022-08-05T10:25:16.290Z,36.44
2022-08-05T10:31:20.826Z,36.24
2022-08-05T10:35:17.184Z,35.57
2022-08-05T10:40:17.494Z,34.79
2022-08-05T10:45:23.509Z,35.74
2022-08-05T10:50:20.803Z,34.86
2022-08-05T10:55:18.434Z,35.03
2022-08-05T11:00:20.534Z,35.05
2022-08-05T11:05:18.158Z,35.63
2022-08-05T11:10:15.764Z,36.79
2022-08-05T11:15:20.331Z,35.63
2022-08-05T11:20:18.712Z,35.53
2022-08-05T11:26:04.180Z,35.11
2022-08-05T11:30:16.563Z,34.90
2022-08-05T11:35:15.606Z,34.88
2022-08-05T11:40:15.535Z,33.82
2022-08-05T11:45:26.835Z,34.29
2022-08-05T11:50:16.464Z,33.89
2022-08-05T11:55:15.281Z,34.27
2022-08-05T12:00:15.233Z,35.14
2022-08-05T12:05:18.120Z,33.58
2022-08-05T12:10:15.164Z,34.06
2022-08-05T12:15:16.783Z,34.54
2022-08-05T12:20:27.851Z,33.00
2022-08-05T12:25:16.599Z,33.77
2022-08-05T12:30:15.474Z,33.77
2022-08-05T12:35:16.896Z,33.48
2022-08-05T12:40:26.371Z,33.20
2022-08-05T12:45:15.730Z,33.39
2022-08-05T12:50:14.684Z,33.58
2022-08-05T12:55:23.264Z,33.29
2022-08-05T13:02:03.203Z,33.20
2022-08-05T13:05:17.241Z,33.67
2022-08-05T13:10:14.456Z,33.39
2022-08-05T13:15:24.004Z,33.29
2022-08-05T13:20:17.316Z,33.48
2022-08-05T13:25:19.456Z,33.79
2022-08-05T13:30:34.954Z,33.89
2022-08-05T13:35:15.194Z,33.31
2022-08-05T13:40:35.514Z,33.51
2022-08-05T13:45:15.042Z,33.81
2022-08-05T13:50:16.808Z,33.81
2022-08-05T13:55:13.928Z,33.81
2022-08-05T14:00:14.873Z,34.58
2022-08-05T14:05:15.378Z,32.95
2022-08-05T14:10:18.390Z,33.53
2022-08-05T14:16:05.783Z,33.34
2022-08-05T14:20:18.345Z,33.84
2022-08-05T14:25:19.011Z,33.55
2022-08-05T14:30:20.356Z,34.61
2022-08-05T14:35:14.489Z,33.84
2022-08-05T14:40:14.263Z,34.61
2022-08-05T14:45:13.391Z,33.74
2022-08-05T14:50:18.468Z,34.14
2022-08-05T14:55:15.678Z,34.13
2022-08-05T15:00:13.221Z,35.00
2022-08-05T15:05:13.592Z,34.34
2022-08-05T15:10:13.096Z,34.14
2022-08-05T15:15:15.547Z,34.74
2022-08-05T15:20:18.960Z,35.32
2022-08-05T15:25:14.674Z,34.47
2022-08-05T15:30:14.150Z,34.87
2022-08-05T15:35:12.887Z,34.39
2022-08-05T15:40:58.491Z,33.73
2022-08-05T15:45:13.721Z,34.33
2022-08-05T15:50:15.377Z,34.71
2022-08-05T15:55:15.619Z,34.83
2022-08-05T16:00:12.524Z,34.65
2022-08-05T16:05:12.496Z,35.04
2022-08-05T16:10:12.426Z,34.77
2022-08-05T16:15:18.524Z,35.17
2022-08-05T16:20:13.433Z,35.85
2022-08-05T16:25:12.240Z,35.57
2022-08-05T16:30:25.477Z,35.90
2022-08-05T16:35:13.102Z,36.02
2022-08-05T16:40:24.817Z,37.20
2022-08-05T16:46:03.478Z,37.12
2022-08-05T16:50:12.918Z,37.82
2022-08-05T16:55:11.863Z,38.13
2022-08-05T17:00:11.806Z,38.44
2022-08-05T17:05:11.759Z,38.65
2022-08-05T17:10:11.706Z,39.06
2022-08-05T17:15:15.525Z,39.18
2022-08-05T17:20:14.588Z,39.39
2022-08-05T17:25:33.629Z,39.88
2022-08-05T17:30:19.286Z,40.19
2022-08-05T17:35:12.403Z,40.48
2022-08-05T17:40:12.394Z,40.99
2022-08-05T17:45:20.219Z,41.02
2022-08-05T17:50:12.240Z,41.11
2022-08-05T17:55:11.158Z,41.82
2022-08-05T18:00:11.099Z,42.11
2022-08-05T18:05:13.635Z,42.13
2022-08-05T18:10:14.084Z,41.96
2022-08-05T18:15:11.923Z,42.35
2022-08-05T18:20:14.058Z,42.85
2022-08-05T18:25:10.799Z,43.34
2022-08-05T18:30:11.743Z,43.56
2022-08-05T18:35:11.518Z,43.29
2022-08-05T18:41:50.536Z,43.99
2022-08-05T18:45:11.560Z,43.62
2022-08-05T18:50:10.969Z,43.94
2022-08-05T18:55:10.851Z,44.53
2022-08-05T19:00:20.030Z,44.55
2022-08-05T19:06:06.312Z,44.55
2022-08-05T19:10:11.265Z,45.16
2022-08-05T19:15:25.142Z,45.57
2022-08-05T19:20:11.118Z,46.26
2022-08-05T19:25:10.048Z,46.68
2022-08-05T19:30:11.009Z,47.27
2022-08-05T19:35:09.932Z,47.78
2022-08-05T19:40:10.090Z,48.18
2022-08-05T19:45:09.803Z,48.86
2022-08-05T19:50:11.941Z,49.38
2022-08-05T19:56:15.473Z,49.99
2022-08-05T20:00:10.639Z,50.39
2022-08-05T20:05:16.234Z,50.81
2022-08-05T20:10:13.614Z,51.10
2022-08-05T20:15:09.462Z,51.30
2022-08-05T20:20:10.879Z,51.62
2022-08-05T20:25:09.343Z,51.72
2022-08-05T20:30:09.272Z,52.01
2022-08-05T20:35:09.231Z,52.23
2022-08-05T20:40:09.265Z,52.43
2022-08-05T20:45:09.102Z,52.85
2022-08-05T20:50:09.039Z,53.05
2022-08-05T20:55:54.996Z,53.54
2022-08-05T21:00:20.588Z,53.74
2022-08-05T21:05:09.851Z,54.06
2022-08-05T21:10:08.870Z,54.85
2022-08-05T21:15:09.777Z,55.54
2022-08-05T21:20:09.848Z,56.85
2022-08-05T21:25:08.585Z,57.45
2022-08-05T21:30:08.549Z,58.26
2022-08-05T21:35:18.212Z,58.95
2022-08-05T21:40:13.887Z,59.84
2022-08-05T21:45:10.802Z,60.66
2022-08-05T21:50:08.282Z,61.55
2022-08-05T21:55:08.222Z,62.27
2022-08-05T22:00:11.247Z,62.79
2022-08-05T22:05:08.962Z,63.49
2022-08-05T22:10:08.110Z,63.92
2022-08-05T22:15:08.039Z,63.82
2022-08-05T22:20:13.347Z,63.95
2022-08-05T22:25:08.923Z,64.14
2022-08-05T22:30:08.778Z,64.57
2022-08-05T22:35:07.722Z,64.77
2022-08-05T22:40:07.717Z,64.80
2022-08-05T22:45:07.609Z,65.49
2022-08-05T22:50:20.636Z,66.52
2022-08-05T22:55:19.399Z,68.70
2022-08-05T23:00:08.404Z,70.51
2022-08-05T23:05:07.417Z,71.84
2022-08-05T23:10:07.303Z,72.01
2022-08-05T23:15:08.590Z,73.03
2022-08-05T23:20:10.466Z,74.37
2022-08-05T23:25:08.096Z,74.80
2022-08-05T23:30:08.218Z,74.93
2022-08-05T23:35:06.979Z,74.97
2022-08-05T23:40:07.852Z,74.90
2022-08-05T23:45:14.109Z,75.54
2022-08-05T23:50:09.542Z,75.84
2022-08-05T23:55:07.094Z,76.27
